WetterOnline ( http://www.wetteronline.de )

Wetter aktuell Eggebek

Aktuelles Wetter: Schleswig (48m)

6-stündlich | Neueste Meldungen
Ortszeit Temperatur Wetter
So, 16.12. 13:00 -0.1° C wolkig
So, 16.12. 7:00 -0.8° C bewölkt
So, 16.12. 1:00 -1.2° C wolkenlos
Sa, 15.12. 19:00 -1.2° C fast wolkenlos
Sa, 15.12. 13:00 0.7° C bewölkt
Sa, 15.12. 7:00 0.3° C bewölkt
Sa, 15.12. 1:00 0.7° C bedeckt
Fr, 14.12. 19:00 2.1° C bedeckt
Ortszeit Temperatur Wetter
So, 16.12. 18:30 -0.6° C bedeckt
So, 16.12. 18:20 -0.6° C bedeckt
So, 16.12. 18:10 -0.6° C wolkig
So, 16.12. 18:00 -0.6° C bedeckt
So, 16.12. 17:50 -0.6° C bedeckt
So, 16.12. 17:40 -0.6° C bedeckt
So, 16.12. 17:30 -0.6° C bedeckt
So, 16.12. 17:00 -0.5° C bewölkt
So, 16.12. 16:30 -0.4° C bewölkt
So, 16.12. 16:00 -0.3° C bewölkt
So, 16.12. 15:30 -0.2° C bewölkt
Ortszeit Relative Feuchte Sichtweite
So, 16.12. 13:00 69% 20 km
So, 16.12. 7:00 84% 12 km
So, 16.12. 1:00 81% 23 km
Sa, 15.12. 19:00 75% 28 km
Sa, 15.12. 13:00 76% 20 km
Sa, 15.12. 7:00 72% 30 km
Sa, 15.12. 1:00 80% 23 km
Fr, 14.12. 19:00 70% 30 km
Ortszeit Relative Feuchte Sichtweite
So, 16.12. 18:30 75% 15 km
So, 16.12. 18:20 75% -
So, 16.12. 18:10 75% -
So, 16.12. 18:00 75% 15 km
So, 16.12. 17:50 75% -
So, 16.12. 17:40 75% -
So, 16.12. 17:30 75% 15 km
So, 16.12. 17:00 74% 18 km
So, 16.12. 16:30 73% 18 km
So, 16.12. 16:00 73% 18 km
So, 16.12. 15:30 72% 18 km
Ortszeit Niederschlagsmenge Niederschlagsart
So, 16.12. 13:00 0.0 l/m2 in 6 Std. -
So, 16.12. 7:00 0.0 l/m2 in 12 Std. -
So, 16.12. 1:00 0.0 l/m2 in 6 Std. -
Sa, 15.12. 19:00 0.0 l/m2 in 12 Std. -
Sa, 15.12. 13:00 0.0 l/m2 in 6 Std. -
Sa, 15.12. 7:00 0.0 l/m2 in 12 Std. -
Sa, 15.12. 1:00 0.0 l/m2 in 6 Std. -
Fr, 14.12. 19:00 0.1 l/m2 in 12 Std. Schnee, Regen
Ortszeit Niederschlagsmenge Niederschlagsart
So, 16.12. 18:30 0.0 l/m2 in 1 Std. -
So, 16.12. 18:20 keine Meldung -
So, 16.12. 18:10 keine Meldung -
So, 16.12. 18:00 0.0 l/m2 in 1 Std. -
So, 16.12. 17:50 keine Meldung -
So, 16.12. 17:40 keine Meldung -
So, 16.12. 17:30 0.0 l/m2 in 1 Std. -
So, 16.12. 17:00 0.0 l/m2 in 1 Std. -
So, 16.12. 16:30 0.0 l/m2 in 1 Std. -
So, 16.12. 16:00 0.0 l/m2 in 1 Std. -
So, 16.12. 15:30 0.0 l/m2 in 1 Std. -
Ortszeit Stärke Spitze Richtung
km/h Bft. km/h Grad Sektor
So, 16.12. 13:00 19 3 43 130° SO
So, 16.12. 7:00 18 3 40 120° SO
So, 16.12. 1:00 19 3 41 120° SO
Sa, 15.12. 19:00 17 3 31 110° O
Sa, 15.12. 13:00 13 3 26 130° SO
Sa, 15.12. 7:00 9 2 19 140° SO
Sa, 15.12. 1:00 7 2 29 140° SO
Fr, 14.12. 19:00 17 3 31 80° O
Ortszeit Stärke Spitze Richtung
km/h Bft. km/h Grad Sektor
So, 16.12. 18:30 11 2 25 120° SO
So, 16.12. 18:20 11 2 - 120° SO
So, 16.12. 18:10 13 3 - 120° SO
So, 16.12. 18:00 13 3 26 120° SO
So, 16.12. 17:50 13 3 - 120° SO
So, 16.12. 17:40 11 2 - 120° SO
So, 16.12. 17:30 11 2 25 120° SO
So, 16.12. 17:00 14 3 25 120° SO
So, 16.12. 16:30 14 3 25 120° SO
So, 16.12. 16:00 14 3 25 120° SO
So, 16.12. 15:30 13 3 26 120° SO
Ortszeit Untergrenze Bedeckung Gattung
total tief tief mittel hoch
So, 16.12. 13:00 780 m 7/8 1/8 Cu Ns Ci
So, 16.12. 7:00 420 m 7/8 7/8 Sc - -
So, 16.12. 1:00 - 0/8 0/8 - - -
Sa, 15.12. 19:00 780 m 1/8 1/8 Sc - -
Sa, 15.12. 13:00 990 m 7/8 7/8 Sc - -
Sa, 15.12. 7:00 990 m 7/8 7/8 Sc - -
Sa, 15.12. 1:00 1080 m 8/8 8/8 - - -
Fr, 14.12. 19:00 1080 m 8/8 7/8 Sc - -
Ortszeit Bedeckungsgrad in Achtel und Wolkenuntergrenze
So, 16.12. 18:30 5(780m) 8(2400m)
So, 16.12. 18:20 9 9 9
So, 16.12. 18:10 4(2100m) 5(2700m)
So, 16.12. 18:00 7(810m) 7(2100m) 8
So, 16.12. 17:50 4(780m) 8(2100m) 8(2400m)
So, 16.12. 17:40 7(810m) 8(2100m) 8(2700m)
So, 16.12. 17:30 7(780m) 8(2700m) 8(3300m)
So, 16.12. 17:00 5(720m) 7(3000m) 8(4800m)
So, 16.12. 16:30 5(690m) 7(3000m) 8(3300m)
So, 16.12. 16:00 5(660m) 7(3000m)
So, 16.12. 15:30 5(690m) 7(3000m)
Ortszeit Luftdruck NN (hPa) Tendenz (hPa in 3 Std.)
So, 16.12. 13:00 1013 - 1,4
So, 16.12. 7:00 1016 - 2,3
So, 16.12. 1:00 1020 - 3,0
Sa, 15.12. 19:00 1026 - 1,9
Sa, 15.12. 13:00 1029 - 1,2
Sa, 15.12. 7:00 1030 + 0,2
Sa, 15.12. 1:00 1029 - 0,1
Fr, 14.12. 19:00 1028 0,0
Ortszeit Luftdruck NN (hPa) Tendenz (hPa in 3 Std.)
So, 16.12. 18:30 1013 + 0,2
So, 16.12. 18:20 1013 keine Meldung
So, 16.12. 18:10 1013 keine Meldung
So, 16.12. 18:00 1013 + 0,2
So, 16.12. 17:50 1013 keine Meldung
So, 16.12. 17:40 1013 keine Meldung
So, 16.12. 17:30 1013 + 0,1
So, 16.12. 17:00 1013 - 0,1
So, 16.12. 16:30 1013 - 0,5
So, 16.12. 16:00 1013 - 0,5
So, 16.12. 15:30 1013 - 0,7
Ortszeit Schneehöhe (cm)
So, 16.12. 13:00 0
So, 16.12. 7:00 0
So, 16.12. 1:00 0
Sa, 15.12. 19:00 0
Sa, 15.12. 13:00 0
Sa, 15.12. 7:00 0
Sa, 15.12. 1:00 0
Fr, 14.12. 19:00 0
Ortszeit Schneehöhe (cm)
So, 16.12. 18:30 0
So, 16.12. 18:20 0
So, 16.12. 18:10 0
So, 16.12. 18:00 0
So, 16.12. 17:50 0
So, 16.12. 17:40 0
So, 16.12. 17:30 0
So, 16.12. 17:00 0
So, 16.12. 16:30 0
So, 16.12. 16:00 0
So, 16.12. 15:30 0
Link zu dieser Seite / Seite empfehlen

Das Wetter in ...